createdAt,value
2018-11-26T00:00:47.626Z,5.44
2018-11-26T00:01:47.594Z,5.42
2018-11-26T00:02:47.576Z,5.51
2018-11-26T00:03:47.549Z,5.47
2018-11-26T00:04:47.545Z,5.40
2018-11-26T00:05:47.555Z,5.45
2018-11-26T00:06:47.553Z,5.45
2018-11-26T00:07:47.557Z,5.44
2018-11-26T00:08:47.519Z,5.49
2018-11-26T00:09:47.504Z,5.44
2018-11-26T00:10:47.479Z,5.38
2018-11-26T00:11:47.484Z,5.44
2018-11-26T00:12:47.468Z,5.42
2018-11-26T00:13:47.452Z,5.42
2018-11-26T00:14:47.428Z,5.37
2018-11-26T00:15:47.423Z,5.45
2018-11-26T00:16:47.425Z,5.42
2018-11-26T00:17:47.398Z,5.42
2018-11-26T00:18:47.396Z,5.47
2018-11-26T00:19:47.382Z,5.38
2018-11-26T00:20:47.381Z,5.42
2018-11-26T00:21:50.403Z,5.44
2018-11-26T00:22:47.349Z,5.45
2018-11-26T00:23:47.340Z,5.40
2018-11-26T00:24:47.336Z,5.42
2018-11-26T00:25:47.316Z,5.49
2018-11-26T00:26:47.301Z,5.49
2018-11-26T00:27:47.304Z,5.41
2018-11-26T00:28:47.288Z,5.40
2018-11-26T00:29:47.268Z,5.42
2018-11-26T00:30:47.268Z,5.44
2018-11-26T00:31:47.265Z,5.44
2018-11-26T00:32:47.239Z,5.47
2018-11-26T00:33:47.233Z,5.45
2018-11-26T00:34:47.225Z,5.42
2018-11-26T00:35:47.203Z,5.49
2018-11-26T00:36:47.196Z,5.47
2018-11-26T00:37:47.213Z,5.44
2018-11-26T00:38:47.176Z,5.45
2018-11-26T00:39:47.164Z,5.44
2018-11-26T00:40:47.161Z,5.44
2018-11-26T00:41:47.157Z,5.42
2018-11-26T00:42:47.146Z,5.49
2018-11-26T00:43:47.119Z,5.40
2018-11-26T00:44:47.099Z,5.47
2018-11-26T00:45:47.086Z,5.42
2018-11-26T00:46:47.077Z,5.42
2018-11-26T00:47:47.093Z,5.42
2018-11-26T00:48:47.062Z,5.40
2018-11-26T00:49:47.042Z,5.45
2018-11-26T00:50:47.039Z,5.44
2018-11-26T00:51:47.028Z,5.45
2018-11-26T00:52:47.003Z,5.38
2018-11-26T00:53:47.017Z,5.44
2018-11-26T00:54:46.999Z,5.40
2018-11-26T00:55:46.973Z,5.48
2018-11-26T00:56:46.971Z,5.45
2018-11-26T00:57:46.955Z,5.41
2018-11-26T00:58:47.489Z,5.47
2018-11-26T00:59:46.933Z,5.47
2018-11-26T01:00:46.925Z,5.42
2018-11-26T01:01:46.927Z,5.33
2018-11-26T01:02:46.915Z,5.48
2018-11-26T01:03:46.918Z,5.42
2018-11-26T01:04:46.887Z,5.42
2018-11-26T01:05:46.869Z,5.47
2018-11-26T01:06:46.861Z,5.38
2018-11-26T01:07:46.846Z,5.42
2018-11-26T01:08:46.860Z,5.41
2018-11-26T01:09:46.835Z,5.42
2018-11-26T01:10:46.818Z,5.37
2018-11-26T01:11:46.803Z,5.37
2018-11-26T01:12:46.796Z,5.38
2018-11-26T01:13:46.813Z,5.48
2018-11-26T01:14:46.773Z,5.45
2018-11-26T01:15:46.762Z,5.41
2018-11-26T01:16:46.753Z,5.42
2018-11-26T01:17:46.737Z,5.38
2018-11-26T01:18:46.756Z,5.40
2018-11-26T01:19:46.724Z,5.37
2018-11-26T01:20:46.697Z,5.38
2018-11-26T01:21:47.497Z,5.40
2018-11-26T01:22:46.686Z,5.42
2018-11-26T01:23:46.693Z,5.40
2018-11-26T01:24:46.654Z,5.45
2018-11-26T01:25:46.645Z,5.45
2018-11-26T01:26:46.639Z,5.44
2018-11-26T01:27:46.635Z,5.47
2018-11-26T01:28:46.637Z,5.45
2018-11-26T01:29:46.604Z,5.48
2018-11-26T01:30:46.615Z,5.45
2018-11-26T01:31:46.585Z,5.47
2018-11-26T01:32:46.601Z,5.44
2018-11-26T01:33:46.576Z,5.49
2018-11-26T01:34:46.551Z,5.51
2018-11-26T01:35:46.537Z,5.48
2018-11-26T01:36:46.518Z,5.45
2018-11-26T01:37:46.520Z,5.48
2018-11-26T01:38:46.522Z,5.48
2018-11-26T01:39:46.495Z,5.45
2018-11-26T01:40:46.489Z,5.49
2018-11-26T01:41:46.475Z,5.47
2018-11-26T01:42:46.467Z,5.45
2018-11-26T01:43:46.469Z,5.47
2018-11-26T01:44:46.448Z,5.51
2018-11-26T01:46:56.659Z,5.52
2018-11-26T01:47:57.643Z,5.42
2018-11-26T01:48:57.658Z,5.42
2018-11-26T01:49:57.613Z,5.51
2018-11-26T01:50:57.603Z,5.47
2018-11-26T01:51:57.600Z,5.47
2018-11-26T01:52:57.584Z,5.47
2018-11-26T01:53:57.593Z,5.49
2018-11-26T01:54:57.569Z,5.48
2018-11-26T01:55:57.550Z,5.48
2018-11-26T01:56:58.368Z,5.45
2018-11-26T01:57:57.527Z,5.48
2018-11-26T01:58:57.549Z,5.52
2018-11-26T01:59:57.504Z,5.44
2018-11-26T02:00:57.544Z,5.51
2018-11-26T02:01:57.485Z,5.49
2018-11-26T02:02:57.483Z,5.51
2018-11-26T02:03:57.586Z,5.45
2018-11-26T02:04:57.465Z,5.49
2018-11-26T02:05:57.453Z,5.49
2018-11-26T02:06:57.447Z,5.45
2018-11-26T02:07:57.422Z,5.45
2018-11-26T02:08:57.415Z,5.49
2018-11-26T02:09:57.410Z,5.44
2018-11-26T02:10:57.399Z,5.44
2018-11-26T02:11:57.378Z,5.41
2018-11-26T02:12:57.379Z,5.44
2018-11-26T02:13:57.381Z,5.45
2018-11-26T02:14:57.353Z,5.48
2018-11-26T02:15:57.331Z,5.44
2018-11-26T02:16:57.345Z,5.45
2018-11-26T02:17:57.327Z,5.45
2018-11-26T02:18:57.319Z,5.44
2018-11-26T02:19:57.297Z,5.42
2018-11-26T02:20:57.289Z,5.47
2018-11-26T02:21:57.270Z,5.45
2018-11-26T02:22:57.258Z,5.48
2018-11-26T02:23:57.276Z,5.51
2018-11-26T02:24:57.235Z,5.42
2018-11-26T02:25:57.241Z,5.45
2018-11-26T02:26:57.219Z,5.42
2018-11-26T02:27:57.205Z,5.42
2018-11-26T02:28:57.222Z,5.41
2018-11-26T02:29:57.276Z,5.37
2018-11-26T02:30:57.170Z,5.42
2018-11-26T02:31:57.175Z,5.45
2018-11-26T02:32:57.183Z,5.44
2018-11-26T02:33:57.171Z,5.44
2018-11-26T02:34:57.143Z,5.33
2018-11-26T02:35:57.125Z,5.33
2018-11-26T02:36:57.128Z,5.33
2018-11-26T02:37:57.102Z,5.44
2018-11-26T02:38:57.115Z,5.44
2018-11-26T02:39:57.081Z,5.32
2018-11-26T02:40:57.089Z,5.41
2018-11-26T02:41:57.069Z,5.40
2018-11-26T02:42:57.072Z,5.35
2018-11-26T02:43:57.038Z,5.37
2018-11-26T02:44:57.038Z,5.35
2018-11-26T02:45:57.007Z,5.44
2018-11-26T02:46:57.011Z,5.44
2018-11-26T02:47:57.000Z,5.38
2018-11-26T02:48:56.988Z,5.38
2018-11-26T02:49:56.978Z,5.35
2018-11-26T02:50:56.959Z,5.44
2018-11-26T02:51:56.957Z,5.35
2018-11-26T02:52:56.951Z,5.41
2018-11-26T02:53:56.936Z,5.41
2018-11-26T02:54:56.957Z,5.38
2018-11-26T02:55:56.904Z,5.47
2018-11-26T02:56:56.900Z,5.38
2018-11-26T02:57:56.890Z,5.44
2018-11-26T02:58:56.867Z,5.33
2018-11-26T02:59:56.892Z,5.38
2018-11-26T03:00:56.856Z,5.42
2018-11-26T03:01:56.837Z,5.42
2018-11-26T03:02:56.830Z,5.41
2018-11-26T03:03:56.822Z,5.42
2018-11-26T03:04:56.838Z,5.33
2018-11-26T03:05:56.801Z,5.40
2018-11-26T03:06:56.796Z,5.47
2018-11-26T03:07:56.777Z,5.29
2018-11-26T03:08:56.765Z,5.45
2018-11-26T03:09:56.786Z,5.30
2018-11-26T03:10:56.763Z,5.38
2018-11-26T03:11:56.734Z,5.44
2018-11-26T03:12:56.732Z,5.38
2018-11-26T03:13:56.710Z,5.41
2018-11-26T03:14:56.724Z,5.44
2018-11-26T03:15:56.717Z,5.44
2018-11-26T03:16:56.697Z,5.45
2018-11-26T03:17:56.682Z,5.41
2018-11-26T03:18:56.664Z,5.33
2018-11-26T03:19:56.673Z,5.42
2018-11-26T03:20:56.646Z,5.37
2018-11-26T03:21:56.641Z,5.38
2018-11-26T03:22:56.634Z,5.38
2018-11-26T03:23:56.613Z,5.44
2018-11-26T03:24:56.629Z,5.41
2018-11-26T03:25:56.614Z,5.40
2018-11-26T03:26:56.583Z,5.32
2018-11-26T03:27:56.576Z,5.40
2018-11-26T03:28:56.555Z,5.42
2018-11-26T03:29:56.580Z,5.44
2018-11-26T03:30:56.537Z,5.40
2018-11-26T03:31:56.546Z,5.42
2018-11-26T03:32:56.521Z,5.41
2018-11-26T03:33:56.522Z,5.44
2018-11-26T03:34:56.521Z,5.48
2018-11-26T03:35:56.489Z,5.45
2018-11-26T03:36:56.467Z,5.44
2018-11-26T03:37:56.460Z,5.47
2018-11-26T03:38:56.458Z,5.33
2018-11-26T03:39:56.449Z,5.44
2018-11-26T03:40:56.444Z,5.38
2018-11-26T03:41:56.422Z,5.33
2018-11-26T03:42:56.423Z,5.38
2018-11-26T03:43:56.398Z,5.40
2018-11-26T03:44:56.412Z,5.42
2018-11-26T03:45:56.386Z,5.42
2018-11-26T03:48:05.582Z,5.44
2018-11-26T03:49:06.594Z,5.47
2018-11-26T03:50:06.596Z,5.49
2018-11-26T03:51:06.561Z,5.41
2018-11-26T03:52:06.536Z,5.45
2018-11-26T03:53:06.516Z,5.42
2018-11-26T03:54:06.536Z,5.42
2018-11-26T03:55:06.526Z,5.52
2018-11-26T03:56:06.494Z,5.45
2018-11-26T03:57:06.480Z,5.42
2018-11-26T03:58:06.476Z,5.52
2018-11-26T03:59:06.455Z,5.52
2018-11-26T04:00:06.462Z,5.49
2018-11-26T04:01:06.451Z,5.42
2018-11-26T04:02:06.431Z,5.49
2018-11-26T04:03:06.418Z,5.48
2018-11-26T04:04:06.414Z,5.47
2018-11-26T04:05:06.430Z,5.47
2018-11-26T04:06:06.397Z,5.44
2018-11-26T04:07:06.387Z,5.52
2018-11-26T04:08:06.374Z,5.44
2018-11-26T04:09:06.350Z,5.58
2018-11-26T04:10:06.386Z,5.59
2018-11-26T04:11:06.342Z,5.55
2018-11-26T04:12:06.328Z,5.52
2018-11-26T04:13:06.307Z,5.56
2018-11-26T04:14:06.299Z,5.55
2018-11-26T04:15:06.306Z,5.48
2018-11-26T04:16:06.293Z,5.52
2018-11-26T04:17:06.263Z,5.55
2018-11-26T04:18:06.259Z,5.52
2018-11-26T04:19:06.238Z,5.52
2018-11-26T04:20:06.339Z,5.49
2018-11-26T04:21:06.246Z,5.56
2018-11-26T04:22:06.223Z,5.59
2018-11-26T04:23:06.217Z,5.52
2018-11-26T04:24:06.199Z,5.59
2018-11-26T04:25:06.205Z,5.59
2018-11-26T04:26:06.180Z,5.59
2018-11-26T04:27:06.165Z,5.58
2018-11-26T04:28:06.149Z,5.59
2018-11-26T04:29:06.142Z,5.60
2018-11-26T04:30:06.160Z,5.59
2018-11-26T04:31:06.130Z,5.56
2018-11-26T04:32:06.099Z,5.60
2018-11-26T04:33:06.093Z,5.59
2018-11-26T04:34:06.072Z,5.66
2018-11-26T04:35:06.094Z,5.58
2018-11-26T04:36:06.092Z,5.66
2018-11-26T04:37:06.065Z,5.56
2018-11-26T04:38:06.026Z,5.60
2018-11-26T04:39:06.030Z,5.59
2018-11-26T04:40:06.025Z,5.55
2018-11-26T04:41:06.011Z,5.62
2018-11-26T04:42:05.988Z,5.56
2018-11-26T04:43:05.981Z,5.55
2018-11-26T04:44:05.967Z,5.58
2018-11-26T04:45:05.964Z,5.58
2018-11-26T04:46:05.964Z,5.58
2018-11-26T04:47:05.941Z,5.62
2018-11-26T04:48:05.921Z,5.69
2018-11-26T04:49:05.909Z,5.60
2018-11-26T04:50:05.899Z,5.62
2018-11-26T04:51:05.923Z,5.56
2018-11-26T04:52:05.905Z,5.56
2018-11-26T04:53:05.888Z,5.58
2018-11-26T04:54:05.857Z,5.59
2018-11-26T04:55:05.858Z,5.62
2018-11-26T04:56:05.859Z,5.55
2018-11-26T04:57:05.824Z,5.65
2018-11-26T04:58:05.827Z,5.62
2018-11-26T04:59:05.804Z,5.62
2018-11-26T05:00:05.802Z,5.58
2018-11-26T05:01:05.807Z,5.69
2018-11-26T05:02:05.774Z,5.60
2018-11-26T05:03:05.765Z,5.59
2018-11-26T05:04:05.747Z,5.63
2018-11-26T05:05:05.735Z,5.58
2018-11-26T05:06:05.736Z,5.65
2018-11-26T05:07:05.741Z,5.55
2018-11-26T05:08:05.706Z,5.58
2018-11-26T05:09:05.695Z,5.58
2018-11-26T05:10:05.680Z,5.63
2018-11-26T05:11:05.679Z,5.59
2018-11-26T05:12:05.689Z,5.60
2018-11-26T05:13:05.651Z,5.58
2018-11-26T05:14:05.638Z,5.59
2018-11-26T05:15:05.630Z,5.62
2018-11-26T05:16:05.617Z,5.60
2018-11-26T05:17:05.635Z,5.58
2018-11-26T05:18:05.601Z,5.55
2018-11-26T05:19:05.579Z,5.62
2018-11-26T05:20:05.579Z,5.59
2018-11-26T05:21:05.556Z,5.59
2018-11-26T05:22:05.574Z,5.58
2018-11-26T05:23:05.552Z,5.60
2018-11-26T05:24:05.535Z,5.59
2018-11-26T05:25:05.527Z,5.52
2018-11-26T05:26:05.503Z,5.59
2018-11-26T05:27:05.515Z,5.52
2018-11-26T05:28:05.498Z,5.59
2018-11-26T05:29:05.470Z,5.62
2018-11-26T05:30:05.478Z,5.59
2018-11-26T05:31:05.708Z,5.60
2018-11-26T05:32:05.456Z,5.60
2018-11-26T05:33:05.439Z,5.60
2018-11-26T05:34:05.428Z,5.63
2018-11-26T05:35:05.400Z,5.62
2018-11-26T05:36:05.583Z,5.55
2018-11-26T05:37:05.410Z,5.58
2018-11-26T05:38:05.368Z,5.69
2018-11-26T05:39:05.365Z,5.59
2018-11-26T05:40:05.359Z,5.67
2018-11-26T05:41:05.349Z,5.62
2018-11-26T05:42:05.346Z,5.59
2018-11-26T05:43:05.344Z,5.58
2018-11-26T05:44:05.304Z,5.59
2018-11-26T05:45:05.311Z,5.58
2018-11-26T05:46:05.302Z,5.59
2018-11-26T05:47:05.301Z,5.52
2018-11-26T05:49:14.469Z,5.70
2018-11-26T05:50:15.447Z,5.59
2018-11-26T05:51:15.459Z,5.62
2018-11-26T05:52:15.452Z,5.67
2018-11-26T05:53:15.415Z,5.67
2018-11-26T05:54:16.213Z,5.67
2018-11-26T05:55:15.397Z,5.62
2018-11-26T05:56:15.380Z,5.67
2018-11-26T05:57:15.379Z,5.69
2018-11-26T05:58:15.360Z,5.66
2018-11-26T05:59:15.338Z,5.67
2018-11-26T06:00:15.342Z,5.66
2018-11-26T06:01:15.332Z,5.66
2018-11-26T06:02:15.336Z,5.75
2018-11-26T06:03:15.309Z,5.67
2018-11-26T06:04:15.291Z,5.63
2018-11-26T06:05:15.285Z,5.60
2018-11-26T06:06:15.272Z,5.63
2018-11-26T06:07:15.285Z,5.65
2018-11-26T06:08:15.255Z,5.69
2018-11-26T06:09:15.232Z,5.63
2018-11-26T06:10:15.216Z,5.69
2018-11-26T06:11:15.213Z,5.67
2018-11-26T06:12:15.227Z,5.63
2018-11-26T06:13:15.198Z,5.69
2018-11-26T06:14:15.174Z,5.78
2018-11-26T06:15:15.163Z,5.73
2018-11-26T06:16:15.165Z,5.67
2018-11-26T06:17:15.168Z,5.67
2018-11-26T06:18:15.136Z,5.73
2018-11-26T06:19:15.141Z,5.74
2018-11-26T06:20:15.112Z,5.74
2018-11-26T06:21:15.099Z,5.63
2018-11-26T06:22:15.114Z,5.67
2018-11-26T06:23:15.087Z,5.75
2018-11-26T06:24:15.070Z,5.58
2018-11-26T06:25:15.073Z,5.66
2018-11-26T06:26:15.040Z,5.67
2018-11-26T06:27:15.063Z,5.70
2018-11-26T06:28:15.023Z,5.74
2018-11-26T06:29:15.006Z,5.65
2018-11-26T06:30:15.009Z,5.62
2018-11-26T06:31:15.003Z,5.66
2018-11-26T06:32:14.989Z,5.69
2018-11-26T06:33:14.978Z,5.73
2018-11-26T06:34:14.985Z,5.66
2018-11-26T06:35:14.950Z,5.62
2018-11-26T06:36:14.948Z,5.69
2018-11-26T06:37:14.927Z,5.67
2018-11-26T06:38:14.947Z,5.75
2018-11-26T06:39:14.908Z,5.74
2018-11-26T06:40:14.896Z,5.70
2018-11-26T06:41:14.887Z,5.63
2018-11-26T06:42:14.874Z,5.75
2018-11-26T06:43:14.876Z,5.78
2018-11-26T06:44:14.870Z,5.70
2018-11-26T06:45:15.731Z,5.73
2018-11-26T06:46:14.831Z,5.77
2018-11-26T06:47:14.969Z,5.75
2018-11-26T06:48:14.857Z,5.70
2018-11-26T06:49:14.788Z,5.63
2018-11-26T06:50:14.792Z,5.74
2018-11-26T06:51:14.771Z,5.67
2018-11-26T06:52:14.773Z,5.74
2018-11-26T06:53:14.759Z,5.73
2018-11-26T06:54:14.771Z,5.69
2018-11-26T06:55:14.732Z,5.69
2018-11-26T06:56:14.717Z,5.70
2018-11-26T06:57:14.712Z,5.78
2018-11-26T06:58:14.713Z,5.74
2018-11-26T06:59:14.689Z,5.67
2018-11-26T07:00:14.675Z,5.67
2018-11-26T07:01:14.680Z,5.66
2018-11-26T07:02:14.700Z,5.73
2018-11-26T07:03:14.780Z,5.75
2018-11-26T07:04:14.638Z,5.69
2018-11-26T07:05:14.617Z,5.62
2018-11-26T07:06:14.609Z,5.62
2018-11-26T07:07:14.636Z,5.59
2018-11-26T07:08:14.603Z,5.65
2018-11-26T07:09:14.578Z,5.70
2018-11-26T07:10:14.556Z,5.56
2018-11-26T07:11:14.548Z,5.69
2018-11-26T07:12:15.489Z,5.69
2018-11-26T07:13:14.543Z,5.69
2018-11-26T07:14:14.600Z,5.67
2018-11-26T07:15:14.527Z,5.69
2018-11-26T07:16:15.299Z,5.55
2018-11-26T07:17:14.529Z,5.69
2018-11-26T07:18:14.507Z,5.75
2018-11-26T07:19:14.482Z,5.65
2018-11-26T07:20:14.467Z,5.62
2018-11-26T07:21:14.436Z,5.69
2018-11-26T07:22:14.433Z,5.73
2018-11-26T07:23:14.446Z,5.70
2018-11-26T07:24:14.767Z,5.74
2018-11-26T07:25:14.422Z,5.67
2018-11-26T07:26:14.386Z,5.73
2018-11-26T07:27:15.322Z,5.69
2018-11-26T07:28:14.381Z,5.69
2018-11-26T07:29:15.278Z,5.73
2018-11-26T07:30:14.386Z,5.70
2018-11-26T07:31:14.591Z,5.62
2018-11-26T07:32:14.432Z,5.70
2018-11-26T07:33:14.449Z,5.73
2018-11-26T07:34:14.295Z,5.69
2018-11-26T07:35:14.296Z,5.74
2018-11-26T07:36:14.345Z,5.70
2018-11-26T07:37:14.256Z,5.77
2018-11-26T07:38:14.311Z,5.78
2018-11-26T07:39:14.233Z,5.73
2018-11-26T07:40:14.338Z,5.80
2018-11-26T07:41:14.227Z,5.78
2018-11-26T07:42:14.267Z,5.69
2018-11-26T07:43:14.227Z,5.69
2018-11-26T07:44:14.229Z,5.73
2018-11-26T07:45:14.171Z,5.70
2018-11-26T07:46:14.174Z,5.69
2018-11-26T07:47:14.195Z,5.70
2018-11-26T07:48:14.172Z,5.69
2018-11-26T07:50:23.397Z,5.74
2018-11-26T07:51:24.372Z,5.70
2018-11-26T07:52:24.379Z,5.67
2018-11-26T07:53:24.411Z,5.77
2018-11-26T07:54:24.398Z,5.66
2018-11-26T07:55:24.330Z,5.63
2018-11-26T07:56:24.318Z,5.78
2018-11-26T07:57:24.336Z,5.73
2018-11-26T07:58:24.501Z,5.65
2018-11-26T07:59:24.314Z,5.77
2018-11-26T08:00:24.277Z,5.70
2018-11-26T08:01:24.285Z,5.73
2018-11-26T08:02:24.337Z,5.67
2018-11-26T08:03:24.255Z,5.55
2018-11-26T08:04:24.236Z,5.74
2018-11-26T08:05:24.217Z,5.59
2018-11-26T08:06:24.236Z,5.66
2018-11-26T08:07:24.190Z,5.69
2018-11-26T08:08:24.211Z,5.65
2018-11-26T08:09:24.193Z,5.67
2018-11-26T08:10:24.184Z,5.66
2018-11-26T08:11:24.278Z,5.59
2018-11-26T08:12:24.164Z,5.65
2018-11-26T08:13:24.148Z,5.56
2018-11-26T08:14:24.613Z,5.60
2018-11-26T08:15:24.118Z,5.59
2018-11-26T08:16:24.157Z,5.67
2018-11-26T08:17:24.130Z,5.69
2018-11-26T08:18:24.105Z,5.59
2018-11-26T08:19:24.064Z,5.65
2018-11-26T08:20:24.578Z,5.58
2018-11-26T08:21:24.041Z,5.52
2018-11-26T08:22:24.041Z,5.51
2018-11-26T08:23:24.019Z,5.49
2018-11-26T08:24:24.065Z,5.62
2018-11-26T08:25:24.039Z,5.59
2018-11-26T08:26:23.991Z,5.58
2018-11-26T08:27:23.970Z,5.56
2018-11-26T08:28:23.957Z,5.67
2018-11-26T08:29:23.972Z,5.59
2018-11-26T08:30:23.948Z,5.58
2018-11-26T08:31:23.924Z,5.60
2018-11-26T08:32:23.920Z,5.55
2018-11-26T08:33:23.923Z,5.62
2018-11-26T08:34:23.950Z,5.66
2018-11-26T08:35:23.888Z,5.60
2018-11-26T08:36:23.885Z,5.62
2018-11-26T08:37:23.880Z,5.51
2018-11-26T08:38:23.862Z,5.60
2018-11-26T08:39:24.025Z,5.58
2018-11-26T08:40:24.851Z,5.58
2018-11-26T08:41:23.835Z,5.59
2018-11-26T08:42:23.819Z,5.55
2018-11-26T08:43:23.813Z,5.52
2018-11-26T08:44:23.818Z,5.55
2018-11-26T08:45:23.861Z,5.45
2018-11-26T08:46:23.771Z,5.49
2018-11-26T08:47:23.760Z,5.55
2018-11-26T08:48:23.755Z,5.51
2018-11-26T08:49:23.787Z,5.52
2018-11-26T08:50:23.723Z,5.60
2018-11-26T08:51:23.703Z,5.49
2018-11-26T08:52:23.706Z,5.49
2018-11-26T08:53:23.718Z,5.49
2018-11-26T08:54:23.695Z,5.58
2018-11-26T08:55:23.708Z,5.41
2018-11-26T08:56:23.664Z,5.59
2018-11-26T08:57:23.742Z,5.52
2018-11-26T08:58:23.644Z,5.55
2018-11-26T08:59:23.675Z,5.55
2018-11-26T09:00:23.609Z,5.49
2018-11-26T09:01:23.606Z,5.55
2018-11-26T09:02:23.592Z,5.69
2018-11-26T09:03:23.631Z,5.69
2018-11-26T09:04:23.617Z,5.59
2018-11-26T09:05:24.264Z,5.66
2018-11-26T09:06:23.572Z,5.62
2018-11-26T09:07:23.541Z,5.69
2018-11-26T09:08:23.523Z,5.66
2018-11-26T09:09:23.540Z,5.65
2018-11-26T09:10:23.515Z,5.69
2018-11-26T09:11:23.496Z,5.67
2018-11-26T09:12:23.514Z,5.62
2018-11-26T09:13:23.510Z,5.62
2018-11-26T09:14:23.481Z,5.69
2018-11-26T09:15:23.464Z,5.66
2018-11-26T09:16:23.446Z,5.66
2018-11-26T09:17:23.450Z,5.63
2018-11-26T09:18:23.425Z,5.59
2018-11-26T09:19:23.446Z,5.52
2018-11-26T09:20:23.402Z,5.60
2018-11-26T09:21:23.381Z,5.58
2018-11-26T09:22:23.379Z,5.58
2018-11-26T09:23:23.357Z,5.58
2018-11-26T09:24:23.376Z,5.56
2018-11-26T09:25:23.345Z,5.66
2018-11-26T09:26:23.353Z,5.56
2018-11-26T09:27:23.313Z,5.49
2018-11-26T09:28:23.307Z,5.47
2018-11-26T09:29:23.332Z,5.51
2018-11-26T09:30:23.283Z,5.58
2018-11-26T09:31:23.272Z,5.56
2018-11-26T09:32:23.272Z,5.60
2018-11-26T09:33:23.273Z,5.55
2018-11-26T09:34:23.276Z,5.49
2018-11-26T09:35:23.229Z,5.41
2018-11-26T09:36:23.216Z,5.38
2018-11-26T09:37:23.225Z,5.42
2018-11-26T09:38:23.235Z,5.45
2018-11-26T09:39:23.215Z,5.44
2018-11-26T09:40:23.192Z,5.35
2018-11-26T09:41:23.164Z,5.42
2018-11-26T09:42:23.156Z,5.45
2018-11-26T09:43:23.139Z,5.49
2018-11-26T09:44:23.152Z,5.47
2018-11-26T09:45:23.130Z,5.45
2018-11-26T09:46:23.113Z,5.52
2018-11-26T09:47:23.105Z,5.49
2018-11-26T09:48:23.092Z,5.40
2018-11-26T09:49:23.126Z,5.45
2018-11-26T09:51:32.263Z,5.51
2018-11-26T09:52:33.249Z,5.47
2018-11-26T09:53:33.244Z,5.42
2018-11-26T09:54:33.257Z,5.45
2018-11-26T09:55:33.216Z,5.41
2018-11-26T09:56:33.198Z,5.49
2018-11-26T09:57:33.193Z,5.48
2018-11-26T09:58:33.195Z,5.47
2018-11-26T09:59:33.219Z,5.51
2018-11-26T10:00:33.172Z,5.48
2018-11-26T10:01:33.148Z,5.47
2018-11-26T10:02:33.148Z,5.51
2018-11-26T10:03:33.127Z,5.51
2018-11-26T10:04:33.151Z,5.42
2018-11-26T10:05:33.120Z,5.47
2018-11-26T10:06:33.100Z,5.55
2018-11-26T10:07:33.088Z,5.52
2018-11-26T10:08:33.129Z,5.51
2018-11-26T10:09:33.080Z,5.52
2018-11-26T10:10:33.050Z,5.52
2018-11-26T10:11:33.041Z,5.58
2018-11-26T10:12:33.042Z,5.56
2018-11-26T10:13:33.019Z,5.60
2018-11-26T10:14:33.020Z,5.59
2018-11-26T10:15:33.011Z,5.58
2018-11-26T10:16:32.988Z,5.58
2018-11-26T10:17:32.984Z,5.44
2018-11-26T10:18:32.959Z,5.55
2018-11-26T10:19:32.964Z,5.59
2018-11-26T10:20:33.353Z,5.56
2018-11-26T10:21:32.934Z,5.59
2018-11-26T10:22:33.092Z,5.60
2018-11-26T10:23:32.928Z,5.62
2018-11-26T10:24:32.990Z,5.63
2018-11-26T10:25:32.939Z,5.66
2018-11-26T10:26:32.897Z,5.62
2018-11-26T10:27:33.058Z,5.77
2018-11-26T10:28:32.882Z,5.65
2018-11-26T10:29:32.857Z,5.55
2018-11-26T10:30:32.863Z,5.58
2018-11-26T10:31:32.835Z,5.58
2018-11-26T10:32:32.822Z,5.63
2018-11-26T10:33:32.798Z,5.56
2018-11-26T10:34:32.842Z,5.51
2018-11-26T10:35:32.797Z,5.56
2018-11-26T10:36:32.795Z,5.58
2018-11-26T10:37:32.756Z,5.62
2018-11-26T10:38:32.757Z,5.63
2018-11-26T10:39:32.749Z,5.63
2018-11-26T10:40:32.797Z,5.56
2018-11-26T10:41:32.755Z,5.52
2018-11-26T10:42:32.709Z,5.51
2018-11-26T10:43:32.707Z,5.55
2018-11-26T10:44:32.685Z,5.44
2018-11-26T10:45:32.717Z,5.45
2018-11-26T10:46:32.889Z,5.45
2018-11-26T10:47:32.705Z,5.42
2018-11-26T10:48:32.648Z,5.47
2018-11-26T10:49:32.625Z,5.49
2018-11-26T10:50:32.875Z,5.42
2018-11-26T10:51:33.107Z,5.40
2018-11-26T10:52:32.997Z,5.37
2018-11-26T10:53:32.677Z,5.42
2018-11-26T10:54:32.647Z,5.37
2018-11-26T10:55:33.607Z,5.35
2018-11-26T10:56:33.016Z,5.45
2018-11-26T10:57:32.556Z,5.47
2018-11-26T10:58:32.678Z,5.47
2018-11-26T10:59:32.517Z,5.40
2018-11-26T11:00:32.580Z,5.37
2018-11-26T11:01:32.576Z,5.45
2018-11-26T11:02:32.653Z,5.55
2018-11-26T11:03:32.559Z,5.60
2018-11-26T11:04:32.471Z,5.66
2018-11-26T11:05:32.625Z,5.73
2018-11-26T11:06:32.470Z,5.62
2018-11-26T11:07:32.581Z,5.70
2018-11-26T11:08:32.443Z,5.63
2018-11-26T11:09:32.483Z,5.65
2018-11-26T11:10:32.413Z,5.69
2018-11-26T11:11:32.505Z,5.70
2018-11-26T11:12:32.387Z,5.67
2018-11-26T11:13:32.372Z,5.73
2018-11-26T11:14:32.381Z,5.69
2018-11-26T11:15:32.488Z,5.75
2018-11-26T11:16:32.371Z,5.80
2018-11-26T11:17:32.342Z,5.67
2018-11-26T11:18:32.331Z,5.63
2018-11-26T11:19:33.057Z,5.65
2018-11-26T11:20:32.364Z,5.56
2018-11-26T11:21:32.304Z,5.52
2018-11-26T11:22:32.377Z,5.56
2018-11-26T11:23:32.322Z,5.60
2018-11-26T11:24:32.253Z,5.60
2018-11-26T11:25:32.248Z,5.58
2018-11-26T11:26:32.260Z,5.70
2018-11-26T11:27:32.229Z,5.74
2018-11-26T11:28:32.253Z,5.69
2018-11-26T11:29:34.012Z,5.69
2018-11-26T11:30:33.186Z,5.60
2018-11-26T11:31:32.262Z,5.60
2018-11-26T11:32:32.173Z,5.70
2018-11-26T11:33:32.147Z,5.69
2018-11-26T11:34:33.658Z,5.63
2018-11-26T11:35:32.273Z,5.56
2018-11-26T11:36:32.163Z,5.60
2018-11-26T11:37:32.120Z,5.63
2018-11-26T11:38:32.147Z,5.69
2018-11-26T11:39:32.100Z,5.77
2018-11-26T11:40:32.089Z,5.73
2018-11-26T11:41:34.451Z,5.83
2018-11-26T11:42:33.267Z,5.81
2018-11-26T11:43:32.098Z,5.90
2018-11-26T11:44:32.181Z,5.84
2018-11-26T11:45:32.263Z,5.84
2018-11-26T11:46:32.129Z,5.96
2018-11-26T11:47:32.053Z,5.78
2018-11-26T11:48:32.012Z,5.70
2018-11-26T11:49:32.054Z,5.81
2018-11-26T11:50:32.045Z,5.75
2018-11-26T11:52:41.561Z,5.75
2018-11-26T11:53:42.477Z,5.70
2018-11-26T11:54:43.122Z,5.70
2018-11-26T11:55:42.355Z,5.80
2018-11-26T11:56:42.541Z,5.88
2018-11-26T11:57:42.325Z,5.95
2018-11-26T11:58:42.575Z,5.81
2018-11-26T11:59:42.670Z,5.77
2018-11-26T12:00:42.255Z,5.62
2018-11-26T12:01:42.251Z,5.66
2018-11-26T12:02:42.309Z,5.63
2018-11-26T12:03:42.235Z,5.62
2018-11-26T12:04:42.369Z,5.59
2018-11-26T12:05:43.128Z,5.66
2018-11-26T12:06:42.199Z,5.69
2018-11-26T12:07:42.248Z,5.75
2018-11-26T12:08:42.407Z,5.63
2018-11-26T12:09:42.167Z,5.66
2018-11-26T12:10:42.149Z,5.67
2018-11-26T12:11:42.144Z,5.58
2018-11-26T12:12:42.194Z,5.49
2018-11-26T12:13:42.123Z,5.45
2018-11-26T12:14:42.105Z,5.45
2018-11-26T12:15:42.102Z,5.48
2018-11-26T12:16:42.095Z,5.48
2018-11-26T12:17:42.104Z,5.58
2018-11-26T12:18:42.077Z,5.65
2018-11-26T12:19:42.080Z,5.67
2018-11-26T12:20:42.041Z,5.65
2018-11-26T12:21:42.037Z,5.69
2018-11-26T12:22:42.051Z,5.69
2018-11-26T12:23:42.012Z,5.56
2018-11-26T12:24:41.998Z,5.58
2018-11-26T12:25:44.911Z,5.62
2018-11-26T12:26:41.984Z,5.52
2018-11-26T12:27:41.974Z,5.52
2018-11-26T12:28:41.984Z,5.55
2018-11-26T12:29:41.951Z,5.56
2018-11-26T12:30:41.956Z,5.49
2018-11-26T12:31:41.929Z,5.59
2018-11-26T12:32:41.910Z,5.56
2018-11-26T12:33:42.919Z,5.47
2018-11-26T12:34:41.910Z,5.33
2018-11-26T12:35:41.907Z,5.41
2018-11-26T12:36:41.869Z,5.30
2018-11-26T12:37:41.859Z,5.26
2018-11-26T12:38:41.844Z,5.26
2018-11-26T12:39:41.861Z,5.27
2018-11-26T12:40:41.832Z,5.23
2018-11-26T12:41:41.808Z,5.27
2018-11-26T12:42:41.801Z,5.24
2018-11-26T12:43:42.437Z,5.41
2018-11-26T12:44:41.802Z,5.32
2018-11-26T12:45:41.776Z,5.30
2018-11-26T12:46:41.761Z,5.30
2018-11-26T12:47:41.747Z,5.45
2018-11-26T12:48:41.738Z,5.41
2018-11-26T12:49:41.756Z,5.40
2018-11-26T12:50:41.776Z,5.38
2018-11-26T12:51:41.703Z,5.29
2018-11-26T12:52:41.704Z,5.26
2018-11-26T12:53:41.693Z,5.42
2018-11-26T12:54:41.724Z,5.33
2018-11-26T12:55:41.675Z,5.27
2018-11-26T12:56:41.665Z,5.30
2018-11-26T12:57:41.657Z,5.30
2018-11-26T12:58:41.632Z,5.29
2018-11-26T12:59:41.662Z,5.40
2018-11-26T13:00:41.610Z,5.35
2018-11-26T13:01:41.602Z,5.24
2018-11-26T13:02:41.682Z,5.09
2018-11-26T13:03:41.584Z,5.15
2018-11-26T13:04:41.590Z,5.22
2018-11-26T13:05:41.582Z,5.29
2018-11-26T13:06:41.539Z,5.27
2018-11-26T13:07:41.540Z,5.15
2018-11-26T13:08:41.549Z,5.24
2018-11-26T13:09:41.569Z,5.27
2018-11-26T13:10:41.518Z,5.22
2018-11-26T13:11:41.736Z,5.22
2018-11-26T13:12:41.482Z,5.27
2018-11-26T13:13:41.476Z,5.23
2018-11-26T13:14:41.478Z,5.14
2018-11-26T13:15:41.463Z,5.29
2018-11-26T13:16:41.445Z,5.06
2018-11-26T13:17:41.435Z,5.11
2018-11-26T13:18:41.421Z,5.06
2018-11-26T13:19:41.425Z,5.01
2018-11-26T13:20:41.405Z,5.12
2018-11-26T13:21:41.688Z,5.04
2018-11-26T13:22:41.374Z,5.15
2018-11-26T13:23:41.376Z,5.09
2018-11-26T13:24:41.375Z,5.09
2018-11-26T13:25:42.181Z,5.08